createdAt,value
2023-12-01T00:00:40.941Z,100.00
2023-12-01T00:03:07.676Z,100.00
2023-12-01T00:05:34.389Z,100.00
2023-12-01T00:08:01.116Z,100.00
2023-12-01T00:10:27.749Z,100.00
2023-12-01T00:12:54.422Z,100.00
2023-12-01T00:15:21.141Z,100.00
2023-12-01T00:17:47.868Z,100.00
2023-12-01T00:20:14.812Z,100.00
2023-12-01T00:22:41.485Z,99.95
2023-12-01T00:25:08.559Z,100.00
2023-12-01T00:27:35.293Z,100.00
2023-12-01T00:30:02.067Z,99.68
2023-12-01T00:32:28.816Z,100.00
2023-12-01T00:34:56.090Z,99.32
2023-12-01T00:37:22.767Z,98.91
2023-12-01T00:39:49.503Z,99.81
2023-12-01T00:42:16.216Z,99.85
2023-12-01T00:44:43.926Z,100.00
2023-12-01T00:47:10.730Z,99.53
2023-12-01T00:49:37.398Z,99.05
2023-12-01T00:52:05.519Z,98.44
2023-12-01T00:54:32.803Z,98.34
2023-12-01T00:56:59.585Z,98.97
2023-12-01T00:59:26.209Z,99.67
2023-12-01T01:01:52.903Z,98.82
2023-12-01T01:04:20.108Z,99.09
2023-12-01T01:06:46.914Z,99.40
2023-12-01T01:09:13.656Z,99.11
2023-12-01T01:11:40.368Z,100.00
2023-12-01T01:14:07.072Z,99.76
2023-12-01T01:16:33.992Z,99.83
2023-12-01T01:19:00.709Z,99.89
2023-12-01T01:21:27.418Z,100.00
2023-12-01T01:23:54.081Z,99.56
2023-12-01T01:26:20.733Z,99.99
2023-12-01T01:28:47.461Z,100.00
2023-12-01T01:31:14.221Z,100.00
2023-12-01T01:33:41.276Z,100.00
2023-12-01T01:36:08.687Z,100.00
2023-12-01T01:38:35.347Z,99.37
2023-12-01T01:41:02.085Z,99.22
2023-12-01T01:43:28.833Z,98.18
2023-12-01T01:46:03.709Z,97.94
2023-12-01T01:48:31.601Z,98.57
2023-12-01T01:50:59.416Z,98.97
2023-12-01T01:53:26.717Z,98.71
2023-12-01T01:55:53.833Z,99.13
2023-12-01T01:58:20.787Z,100.00
2023-12-01T02:00:51.054Z,100.00
2023-12-01T02:03:20.244Z,100.00
2023-12-01T02:05:49.135Z,100.00
2023-12-01T02:08:29.867Z,100.00
2023-12-01T02:10:58.672Z,100.00
2023-12-01T02:13:25.603Z,100.00
2023-12-01T02:15:53.288Z,100.00
2023-12-01T02:18:28.436Z,100.00
2023-12-01T02:20:56.887Z,100.00
2023-12-01T02:23:24.216Z,100.00
2023-12-01T02:25:51.642Z,100.00
2023-12-01T02:28:18.712Z,100.00
2023-12-01T02:30:53.796Z,100.00
2023-12-01T02:33:21.120Z,100.00
2023-12-01T02:35:49.204Z,99.62
2023-12-01T02:38:16.281Z,99.44
2023-12-01T02:40:50.920Z,100.00
2023-12-01T02:43:18.917Z,99.49
2023-12-01T02:45:46.349Z,100.00
2023-12-01T02:48:13.291Z,99.86
2023-12-01T02:50:40.214Z,99.72
2023-12-01T02:53:07.768Z,99.62
2023-12-01T02:55:34.721Z,100.00
2023-12-01T02:58:02.180Z,100.00
2023-12-01T03:00:29.027Z,100.00
2023-12-01T03:02:55.769Z,100.00
2023-12-01T03:05:23.094Z,100.00
2023-12-01T03:07:49.866Z,100.00
2023-12-01T03:10:16.898Z,100.00
2023-12-01T03:12:44.914Z,100.00
2023-12-01T03:15:13.551Z,100.00
2023-12-01T03:17:41.174Z,100.00
2023-12-01T03:20:11.171Z,100.00
2023-12-01T03:22:40.163Z,100.00
2023-12-01T03:25:13.452Z,100.00
2023-12-01T03:27:41.574Z,100.00
2023-12-01T03:30:16.807Z,100.00
2023-12-01T03:32:50.975Z,100.00
2023-12-01T03:35:22.928Z,100.00
2023-12-01T03:37:51.031Z,100.00
2023-12-01T03:40:17.868Z,100.00
2023-12-01T03:42:49.134Z,100.00
2023-12-01T03:45:17.290Z,99.91
2023-12-01T03:47:46.177Z,99.76
2023-12-01T03:50:13.586Z,100.00
2023-12-01T03:52:44.635Z,99.17
2023-12-01T03:55:12.925Z,100.00
2023-12-01T03:57:41.218Z,98.98
2023-12-01T04:00:09.821Z,99.33
2023-12-01T04:02:42.457Z,98.98
2023-12-01T04:05:10.198Z,98.15
2023-12-01T04:07:37.231Z,98.81
2023-12-01T04:10:11.997Z,98.27
2023-12-01T04:12:45.978Z,97.52
2023-12-01T04:15:16.860Z,96.62
2023-12-01T04:17:45.206Z,97.47
2023-12-01T04:20:28.372Z,97.25
2023-12-01T04:22:59.689Z,96.39
2023-12-01T04:25:27.312Z,95.90
2023-12-01T04:27:54.938Z,96.38
2023-12-01T04:30:23.150Z,95.50
2023-12-01T04:32:55.888Z,96.02
2023-12-01T04:35:26.013Z,95.28
2023-12-01T04:37:52.857Z,95.02
2023-12-01T04:40:19.713Z,95.04
2023-12-01T04:42:47.982Z,93.92
2023-12-01T04:45:17.475Z,94.83
2023-12-01T04:47:46.038Z,95.34
2023-12-01T04:50:16.158Z,95.32
2023-12-01T04:52:44.529Z,94.59
2023-12-01T04:55:16.097Z,95.21
2023-12-01T04:57:44.121Z,95.56
2023-12-01T05:00:22.631Z,95.48
2023-12-01T05:02:53.728Z,95.59
2023-12-01T05:05:25.353Z,95.20
2023-12-01T05:07:54.102Z,95.02
2023-12-01T05:10:22.628Z,94.26
2023-12-01T05:12:51.958Z,95.37
2023-12-01T05:15:20.607Z,95.32
2023-12-01T05:18:14.025Z,95.13
2023-12-01T05:20:41.242Z,95.22
2023-12-01T05:23:11.746Z,95.61
2023-12-01T05:25:40.811Z,96.72
2023-12-01T05:28:09.341Z,95.62
2023-12-01T05:30:39.824Z,94.84
2023-12-01T05:33:06.599Z,95.83
2023-12-01T05:35:36.329Z,95.96
2023-12-01T05:38:05.491Z,95.27
2023-12-01T05:40:37.910Z,95.75
2023-12-01T05:43:07.132Z,94.39
2023-12-01T05:45:34.649Z,94.64
2023-12-01T05:48:04.174Z,95.58
2023-12-01T05:50:34.264Z,96.20
2023-12-01T05:53:03.486Z,95.78
2023-12-01T05:55:33.966Z,96.10
2023-12-01T05:58:10.445Z,95.74
2023-12-01T06:00:37.946Z,95.37
2023-12-01T06:03:08.838Z,97.45
2023-12-01T06:05:37.018Z,97.09
2023-12-01T06:08:05.044Z,95.71
2023-12-01T06:10:34.104Z,95.72
2023-12-01T06:13:01.855Z,95.82
2023-12-01T06:15:32.276Z,94.70
2023-12-01T06:18:01.282Z,95.58
2023-12-01T06:20:28.381Z,95.95
2023-12-01T06:22:57.770Z,96.16
2023-12-01T06:25:28.554Z,96.08
2023-12-01T06:27:59.922Z,95.09
2023-12-01T06:30:35.343Z,94.84
2023-12-01T06:33:04.562Z,94.19
2023-12-01T06:35:31.376Z,95.40
2023-12-01T06:37:58.316Z,96.18
2023-12-01T06:40:25.484Z,94.66
2023-12-01T06:42:56.731Z,95.17
2023-12-01T06:45:29.378Z,95.32
2023-12-01T06:48:01.901Z,94.69
2023-12-01T06:50:30.208Z,95.72
2023-12-01T06:53:01.085Z,95.45
2023-12-01T06:55:28.460Z,94.84
2023-12-01T06:57:55.210Z,94.77
2023-12-01T07:00:31.803Z,96.14
2023-12-01T07:03:08.180Z,95.44
2023-12-01T07:05:36.910Z,95.43
2023-12-01T07:08:06.479Z,95.03
2023-12-01T07:10:37.461Z,95.57
2023-12-01T07:13:06.646Z,94.23
2023-12-01T07:15:33.527Z,93.43
2023-12-01T07:18:00.456Z,94.49
2023-12-01T07:20:27.287Z,94.78
2023-12-01T07:22:57.474Z,93.47
2023-12-01T07:25:25.898Z,94.14
2023-12-01T07:28:02.591Z,93.52
2023-12-01T07:30:29.865Z,94.64
2023-12-01T07:32:58.231Z,93.79
2023-12-01T07:35:25.005Z,93.90
2023-12-01T07:37:54.573Z,92.51
2023-12-01T07:40:23.041Z,93.02
2023-12-01T07:42:51.966Z,91.92
2023-12-01T07:45:19.887Z,92.28
2023-12-01T07:47:52.112Z,93.21
2023-12-01T07:50:22.519Z,93.82
2023-12-01T07:52:51.099Z,92.73
2023-12-01T07:55:19.438Z,90.71
2023-12-01T07:57:46.158Z,91.81
2023-12-01T08:00:16.792Z,91.72
2023-12-01T08:02:48.428Z,93.14
2023-12-01T08:05:16.083Z,91.60
2023-12-01T08:07:53.321Z,91.86
2023-12-01T08:10:22.022Z,91.64
2023-12-01T08:12:50.898Z,92.67
2023-12-01T08:15:18.362Z,91.07
2023-12-01T08:17:46.421Z,96.04
2023-12-01T08:20:13.643Z,91.04
2023-12-01T08:22:40.918Z,99.84
2023-12-01T08:25:09.573Z,90.96
2023-12-01T08:27:37.143Z,86.67
2023-12-01T08:30:04.747Z,86.20
2023-12-01T08:32:31.896Z,85.25
2023-12-01T08:34:58.956Z,87.61
2023-12-01T08:37:25.969Z,88.24
2023-12-01T08:39:52.843Z,89.60
2023-12-01T08:42:20.254Z,89.02
2023-12-01T08:44:47.131Z,90.82
2023-12-01T08:47:16.369Z,87.97
2023-12-01T08:49:43.084Z,88.85
2023-12-01T08:52:09.793Z,88.40
2023-12-01T08:54:36.610Z,87.77
2023-12-01T08:57:03.781Z,84.83
2023-12-01T08:59:30.471Z,84.85
2023-12-01T09:01:57.234Z,83.52
2023-12-01T09:04:24.047Z,84.60
2023-12-01T09:06:50.690Z,85.98
2023-12-01T09:09:18.945Z,85.76
2023-12-01T09:12:02.638Z,84.46
2023-12-01T09:14:29.502Z,86.22
2023-12-01T09:16:56.231Z,87.31
2023-12-01T09:19:23.027Z,87.30
2023-12-01T09:21:50.004Z,84.37
2023-12-01T09:24:17.063Z,83.93
2023-12-01T09:26:43.852Z,84.19
2023-12-01T09:29:11.008Z,82.38
2023-12-01T09:31:46.098Z,82.10
2023-12-01T09:34:12.934Z,83.26
2023-12-01T09:36:40.468Z,83.84
2023-12-01T09:39:07.235Z,85.41
2023-12-01T09:41:37.710Z,84.86
2023-12-01T09:44:10.944Z,84.36
2023-12-01T09:46:41.201Z,84.98
2023-12-01T09:49:08.126Z,84.25
2023-12-01T09:51:37.602Z,82.23
2023-12-01T09:54:05.311Z,83.42
2023-12-01T09:56:33.150Z,88.13
2023-12-01T09:59:00.681Z,79.88
2023-12-01T10:01:28.061Z,77.46
2023-12-01T10:03:54.997Z,77.62
2023-12-01T10:06:22.584Z,73.53
2023-12-01T10:08:50.897Z,72.48
2023-12-01T10:11:25.999Z,75.13
2023-12-01T10:13:53.810Z,73.75
2023-12-01T10:16:23.120Z,73.27
2023-12-01T10:19:01.130Z,71.42
2023-12-01T10:21:44.954Z,70.59
2023-12-01T10:24:21.961Z,71.85
2023-12-01T10:26:51.145Z,71.94
2023-12-01T10:29:32.740Z,72.35
2023-12-01T10:32:01.739Z,73.79
2023-12-01T10:34:28.483Z,71.41
2023-12-01T10:36:56.156Z,71.92
2023-12-01T10:39:29.207Z,70.78
2023-12-01T10:42:01.402Z,71.62
2023-12-01T10:44:32.359Z,69.24
2023-12-01T10:47:00.321Z,69.83
2023-12-01T10:49:28.405Z,69.96
2023-12-01T10:51:57.268Z,68.21
2023-12-01T10:54:27.586Z,69.78
2023-12-01T10:57:16.613Z,71.23
2023-12-01T10:59:52.250Z,72.72
2023-12-01T11:02:19.957Z,69.96
2023-12-01T11:04:47.376Z,69.01
2023-12-01T11:07:32.884Z,69.75
2023-12-01T11:10:22.901Z,69.18
2023-12-01T11:13:04.943Z,72.10
2023-12-01T11:15:36.371Z,71.33
2023-12-01T11:18:03.289Z,68.95
2023-12-01T11:20:35.756Z,68.70
2023-12-01T11:23:16.352Z,69.22
2023-12-01T11:25:49.896Z,68.43
2023-12-01T11:28:44.466Z,69.64
2023-12-01T11:31:38.872Z,69.32
2023-12-01T11:34:06.610Z,68.63
2023-12-01T11:36:35.190Z,69.96
2023-12-01T11:39:11.132Z,68.44
2023-12-01T11:41:48.134Z,65.95
2023-12-01T11:44:38.590Z,68.06
2023-12-01T11:47:09.062Z,68.18
2023-12-01T11:49:40.347Z,67.63
2023-12-01T11:52:11.913Z,68.09
2023-12-01T11:54:39.174Z,68.80
2023-12-01T11:57:08.003Z,66.98
2023-12-01T11:59:35.855Z,67.20
2023-12-01T12:02:03.481Z,66.85
2023-12-01T12:04:30.903Z,66.92
2023-12-01T12:07:01.588Z,68.13
2023-12-01T12:09:33.580Z,67.28
2023-12-01T12:12:10.909Z,68.30
2023-12-01T12:14:39.772Z,70.44
2023-12-01T12:17:07.390Z,70.75
2023-12-01T12:19:50.440Z,70.71
2023-12-01T12:22:21.572Z,70.46
2023-12-01T12:24:49.435Z,70.46
2023-12-01T12:27:16.672Z,71.55
2023-12-01T12:29:44.012Z,72.85
2023-12-01T12:32:10.834Z,75.24
2023-12-01T12:34:39.888Z,70.27
2023-12-01T12:37:06.606Z,71.59
2023-12-01T12:39:33.688Z,69.81
2023-12-01T12:42:02.909Z,71.09
2023-12-01T12:44:35.327Z,71.96
2023-12-01T12:47:06.491Z,73.29
2023-12-01T12:49:35.431Z,72.63
2023-12-01T12:52:04.264Z,72.35
2023-12-01T12:54:32.630Z,72.78
2023-12-01T12:56:59.501Z,72.45
2023-12-01T12:59:26.207Z,73.22
2023-12-01T13:01:53.696Z,74.36
2023-12-01T13:04:21.592Z,75.31
2023-12-01T13:06:50.234Z,75.47
2023-12-01T13:09:18.992Z,77.84
2023-12-01T13:11:46.344Z,77.65
2023-12-01T13:14:14.728Z,78.43
2023-12-01T13:16:52.466Z,79.29
2023-12-01T13:19:23.614Z,80.16
2023-12-01T13:21:53.934Z,81.58
2023-12-01T13:24:22.801Z,82.75
2023-12-01T13:26:49.867Z,83.88
2023-12-01T13:29:16.671Z,85.32
2023-12-01T13:31:43.658Z,85.48
2023-12-01T13:34:10.664Z,87.41
2023-12-01T13:36:37.365Z,87.63
2023-12-01T13:39:04.426Z,88.13
2023-12-01T13:41:32.013Z,89.05
2023-12-01T13:43:58.943Z,88.81
2023-12-01T13:46:25.660Z,91.46
2023-12-01T13:48:52.618Z,91.21
2023-12-01T13:51:19.494Z,91.54
2023-12-01T13:53:46.192Z,92.76
2023-12-01T13:56:13.092Z,94.14
2023-12-01T13:58:43.786Z,93.24
2023-12-01T14:01:12.170Z,92.93
2023-12-01T14:03:38.995Z,93.02
2023-12-01T14:06:06.527Z,93.16
2023-12-01T14:08:33.382Z,93.64
2023-12-01T14:11:00.155Z,94.27
2023-12-01T14:13:26.918Z,94.14
2023-12-01T14:15:54.317Z,92.76
2023-12-01T14:18:21.119Z,94.67
2023-12-01T14:20:47.911Z,95.35
2023-12-01T14:23:14.644Z,94.62
2023-12-01T14:25:41.278Z,94.87
2023-12-01T14:28:08.384Z,94.84
2023-12-01T14:30:35.053Z,95.52
2023-12-01T14:33:02.442Z,95.75
2023-12-01T14:35:29.399Z,96.47
2023-12-01T14:37:56.038Z,96.43
2023-12-01T14:40:22.847Z,95.84
2023-12-01T14:42:49.895Z,96.25
2023-12-01T14:45:16.664Z,96.62
2023-12-01T14:47:43.481Z,97.97
2023-12-01T14:50:10.421Z,96.89
2023-12-01T14:52:37.127Z,97.67
2023-12-01T14:55:04.636Z,97.94
2023-12-01T14:57:31.359Z,99.72
2023-12-01T14:59:58.058Z,99.04
2023-12-01T15:02:24.827Z,98.19
2023-12-01T15:04:51.773Z,98.14
2023-12-01T15:07:18.510Z,98.09
2023-12-01T15:09:45.171Z,98.57
2023-12-01T15:12:12.055Z,98.93
2023-12-01T15:14:38.734Z,99.49
2023-12-01T15:17:05.664Z,100.00
2023-12-01T15:19:33.658Z,100.00
2023-12-01T15:22:01.354Z,100.00
2023-12-01T15:24:28.273Z,100.00
2023-12-01T15:26:57.929Z,99.74
2023-12-01T15:29:25.549Z,99.33
2023-12-01T15:31:52.661Z,99.38
2023-12-01T15:34:19.368Z,99.54
2023-12-01T15:36:46.091Z,100.00
2023-12-01T15:39:12.977Z,100.00
2023-12-01T15:41:40.254Z,100.00
2023-12-01T15:44:07.633Z,100.00
2023-12-01T15:46:34.412Z,99.15
2023-12-01T15:49:01.211Z,100.00
2023-12-01T15:51:28.120Z,100.00
2023-12-01T15:53:55.067Z,100.00
2023-12-01T15:56:22.167Z,100.00
2023-12-01T15:58:48.826Z,100.00
2023-12-01T16:01:15.572Z,99.58
2023-12-01T16:03:42.396Z,99.86
2023-12-01T16:06:09.955Z,99.84
2023-12-01T16:08:36.650Z,99.92
2023-12-01T16:11:04.156Z,99.87
2023-12-01T16:13:30.915Z,99.20
2023-12-01T16:15:57.633Z,100.00
2023-12-01T16:18:25.613Z,99.65
2023-12-01T16:20:53.339Z,100.00
2023-12-01T16:23:20.985Z,100.00
2023-12-01T16:25:50.488Z,100.00
2023-12-01T16:28:17.491Z,100.00
2023-12-01T16:30:44.620Z,100.00
2023-12-01T16:33:11.391Z,100.00
2023-12-01T16:35:38.078Z,100.00
2023-12-01T16:38:06.361Z,99.94
2023-12-01T16:40:33.168Z,100.00
2023-12-01T16:42:59.909Z,100.00
2023-12-01T16:45:26.646Z,100.00
2023-12-01T16:47:53.869Z,100.00
2023-12-01T16:50:20.668Z,100.00
2023-12-01T16:52:47.349Z,100.00
2023-12-01T16:55:16.290Z,100.00
2023-12-01T16:57:43.178Z,98.72
2023-12-01T17:00:10.619Z,100.00
2023-12-01T17:02:39.458Z,100.00
2023-12-01T17:05:06.386Z,100.00
2023-12-01T17:07:33.111Z,100.00
2023-12-01T17:09:59.838Z,100.00
2023-12-01T17:12:26.662Z,100.00
2023-12-01T17:14:53.415Z,100.00
2023-12-01T17:17:20.434Z,100.00
2023-12-01T17:19:47.106Z,100.00
2023-12-01T17:22:14.223Z,100.00
2023-12-01T17:24:43.044Z,100.00
2023-12-01T17:27:13.356Z,100.00
2023-12-01T17:29:43.980Z,97.64
2023-12-01T17:32:11.096Z,100.00
2023-12-01T17:34:38.136Z,100.00
2023-12-01T17:37:05.255Z,99.79
2023-12-01T17:39:31.903Z,98.91
2023-12-01T17:41:58.675Z,100.00
2023-12-01T17:44:25.406Z,100.00
2023-12-01T17:46:52.133Z,98.59
2023-12-01T17:49:18.804Z,98.19
2023-12-01T17:51:45.487Z,98.61
2023-12-01T17:54:15.145Z,98.07
2023-12-01T17:56:41.813Z,98.62
2023-12-01T17:59:08.620Z,98.70
2023-12-01T18:01:36.450Z,100.00
2023-12-01T18:04:04.779Z,99.70
2023-12-01T18:06:32.231Z,100.00
2023-12-01T18:08:58.983Z,100.00
2023-12-01T18:11:25.869Z,100.00
2023-12-01T18:13:52.757Z,100.00
2023-12-01T18:16:21.422Z,100.00
2023-12-01T18:18:48.492Z,100.00
2023-12-01T18:21:15.498Z,100.00
2023-12-01T18:23:42.273Z,100.00
2023-12-01T18:26:09.012Z,100.00
2023-12-01T18:28:35.714Z,100.00
2023-12-01T18:31:02.517Z,100.00
2023-12-01T18:33:29.299Z,100.00
2023-12-01T18:35:56.135Z,100.00
2023-12-01T18:38:22.937Z,100.00
2023-12-01T18:40:49.657Z,100.00
2023-12-01T18:43:16.405Z,99.93
2023-12-01T18:45:43.783Z,99.64
2023-12-01T18:48:10.616Z,98.75
2023-12-01T18:50:37.481Z,97.62
2023-12-01T18:53:04.235Z,98.53
2023-12-01T18:55:31.058Z,100.00
2023-12-01T18:57:58.114Z,100.00
2023-12-01T19:00:27.454Z,97.57
2023-12-01T19:02:54.925Z,98.47
2023-12-01T19:05:23.432Z,98.33
2023-12-01T19:07:50.721Z,99.29
2023-12-01T19:10:17.472Z,100.00
2023-12-01T19:12:44.204Z,99.76
2023-12-01T19:15:11.131Z,99.29
2023-12-01T19:17:37.883Z,98.22
2023-12-01T19:20:05.740Z,98.14
2023-12-01T19:22:32.959Z,98.57
2023-12-01T19:25:00.814Z,99.07
2023-12-01T19:27:28.031Z,99.78
2023-12-01T19:29:54.900Z,98.47
2023-12-01T19:32:21.726Z,99.76
2023-12-01T19:34:48.467Z,99.59
2023-12-01T19:37:15.570Z,100.00
2023-12-01T19:39:42.223Z,100.00
2023-12-01T19:42:11.804Z,100.00
2023-12-01T19:44:38.903Z,100.00
2023-12-01T19:47:05.868Z,100.00
2023-12-01T19:49:32.934Z,100.00
2023-12-01T19:51:59.662Z,100.00
2023-12-01T19:54:26.419Z,100.00
2023-12-01T19:56:53.238Z,100.00
2023-12-01T19:59:20.447Z,100.00
2023-12-01T20:01:48.243Z,100.00
2023-12-01T20:04:15.102Z,100.00
2023-12-01T20:06:41.960Z,99.21
2023-12-01T20:09:08.977Z,98.49
2023-12-01T20:11:35.683Z,99.02
2023-12-01T20:14:02.433Z,98.67
2023-12-01T20:16:29.689Z,98.97
2023-12-01T20:18:57.370Z,100.00
2023-12-01T20:21:24.563Z,100.00
2023-12-01T20:23:53.013Z,100.00
2023-12-01T20:26:19.734Z,100.00
2023-12-01T20:28:46.360Z,100.00
2023-12-01T20:31:12.998Z,100.00
2023-12-01T20:33:39.815Z,100.00
2023-12-01T20:36:06.911Z,100.00
2023-12-01T20:38:35.927Z,100.00
2023-12-01T20:41:08.275Z,100.00
2023-12-01T20:43:35.472Z,99.61
2023-12-01T20:46:05.747Z,100.00
2023-12-01T20:48:34.846Z,99.48
2023-12-01T20:51:01.888Z,99.72
2023-12-01T20:53:28.654Z,100.00
2023-12-01T20:55:55.371Z,100.00
2023-12-01T20:58:22.031Z,98.65
2023-12-01T21:00:48.729Z,99.99
2023-12-01T21:03:16.780Z,99.05
2023-12-01T21:05:43.842Z,99.09
2023-12-01T21:08:10.554Z,100.00
2023-12-01T21:10:37.648Z,100.00
2023-12-01T21:13:05.669Z,100.00
2023-12-01T21:15:32.358Z,100.00
2023-12-01T21:17:59.248Z,99.64
2023-12-01T21:20:26.115Z,100.00
2023-12-01T21:22:55.683Z,100.00
2023-12-01T21:25:24.007Z,100.00
2023-12-01T21:27:51.265Z,99.69
2023-12-01T21:30:18.218Z,98.96
2023-12-01T21:32:45.166Z,99.65
2023-12-01T21:35:12.117Z,99.43
2023-12-01T21:37:38.861Z,99.31
2023-12-01T21:40:06.526Z,98.59
2023-12-01T21:42:33.293Z,98.67
2023-12-01T21:45:00.033Z,99.36
2023-12-01T21:47:26.719Z,100.00
2023-12-01T21:49:53.439Z,100.00
2023-12-01T21:52:20.133Z,100.00
2023-12-01T21:54:46.872Z,100.00
2023-12-01T21:57:15.380Z,100.00
2023-12-01T21:59:42.063Z,100.00
2023-12-01T22:02:08.789Z,100.00
2023-12-01T22:04:35.551Z,100.00
2023-12-01T22:07:02.241Z,100.00
2023-12-01T22:09:29.105Z,100.00
2023-12-01T22:11:55.835Z,99.43
2023-12-01T22:14:23.332Z,100.00
2023-12-01T22:16:51.153Z,100.00
2023-12-01T22:19:18.041Z,100.00
2023-12-01T22:21:44.761Z,99.28
2023-12-01T22:24:11.687Z,100.00
2023-12-01T22:26:38.423Z,100.00
2023-12-01T22:29:05.098Z,100.00
2023-12-01T22:31:32.325Z,100.00
2023-12-01T22:33:59.396Z,100.00
2023-12-01T22:36:26.290Z,100.00
2023-12-01T22:38:53.079Z,100.00
2023-12-01T22:41:22.709Z,100.00
2023-12-01T22:43:49.407Z,99.43
2023-12-01T22:46:16.692Z,99.84
2023-12-01T22:48:44.439Z,97.37
2023-12-01T22:51:13.525Z,98.70
2023-12-01T22:53:40.764Z,98.79
2023-12-01T22:56:09.651Z,99.56
2023-12-01T22:58:37.138Z,99.73
2023-12-01T23:01:04.340Z,99.82
2023-12-01T23:03:31.586Z,100.00
2023-12-01T23:21:01.054Z,100.00
2023-12-01T23:23:27.932Z,99.99
2023-12-01T23:25:54.761Z,100.00
2023-12-01T23:28:21.518Z,100.00
2023-12-01T23:30:48.286Z,100.00
2023-12-01T23:33:15.146Z,100.00
2023-12-01T23:39:22.586Z,100.00
2023-12-01T23:41:49.462Z,100.00
2023-12-01T23:44:16.239Z,100.00
2023-12-01T23:46:42.906Z,100.00
2023-12-01T23:49:09.688Z,99.02
2023-12-01T23:51:36.795Z,99.51
2023-12-01T23:54:03.534Z,98.84
2023-12-01T23:56:30.309Z,98.77
2023-12-01T23:58:57.005Z,98.79
